createdAt,value
2018-01-10T00:00:25.091Z,32.50
2018-01-10T00:00:58.765Z,36.17
2018-01-10T00:01:32.438Z,35.60
2018-01-10T00:02:06.216Z,30.85
2018-01-10T00:02:40.663Z,32.38
2018-01-10T00:03:14.333Z,29.23
2018-01-10T00:03:48.023Z,40.70
2018-01-10T00:04:21.709Z,31.73
2018-01-10T00:04:55.381Z,30.62
2018-01-10T00:05:29.846Z,34.33
2018-01-10T00:06:03.537Z,35.13
2018-01-10T00:06:37.226Z,33.70
2018-01-10T00:07:10.908Z,41.95
2018-01-10T00:07:44.569Z,33.47
2018-01-10T00:08:18.241Z,34.13
2018-01-10T00:08:52.691Z,33.33
2018-01-10T00:09:26.554Z,32.38
2018-01-10T00:10:00.224Z,33.13
2018-01-10T00:10:34.692Z,29.50
2018-01-10T00:11:08.362Z,32.55
2018-01-10T00:11:42.039Z,32.22
2018-01-10T00:12:15.700Z,30.55
2018-01-10T00:12:50.129Z,34.38
2018-01-10T00:13:23.817Z,33.45
2018-01-10T00:13:57.520Z,31.17
2018-01-10T00:14:31.222Z,31.20
2018-01-10T00:15:04.893Z,30.23
2018-01-10T00:15:38.598Z,32.85
2018-01-10T00:16:12.262Z,33.75
2018-01-10T00:16:45.940Z,33.90
2018-01-10T00:17:20.380Z,32.80
2018-01-10T00:17:54.055Z,27.65
2018-01-10T00:18:27.738Z,32.58
2018-01-10T00:19:01.409Z,31.27
2018-01-10T00:19:35.843Z,36.13
2018-01-10T00:20:09.527Z,32.72
2018-01-10T00:20:43.228Z,29.23
2018-01-10T00:21:16.579Z,31.00
2018-01-10T00:21:51.037Z,33.28
2018-01-10T00:22:24.762Z,29.63
2018-01-10T00:22:58.443Z,33.80
2018-01-10T00:23:32.144Z,29.02
2018-01-10T00:24:05.824Z,32.30
2018-01-10T00:24:39.498Z,27.13
2018-01-10T00:25:13.174Z,32.38
2018-01-10T00:25:46.866Z,39.30
2018-01-10T00:26:20.539Z,32.88
2018-01-10T00:26:54.221Z,40.20
2018-01-10T00:27:27.901Z,28.00
2018-01-10T00:28:02.556Z,31.85
2018-01-10T00:28:36.251Z,34.33
2018-01-10T00:29:09.933Z,32.88
2018-01-10T00:29:43.610Z,31.75
2018-01-10T00:30:17.304Z,33.47
2018-01-10T00:30:51.170Z,32.45
2018-01-10T00:31:25.614Z,29.45
2018-01-10T00:31:59.293Z,31.42
2018-01-10T00:32:32.977Z,31.52
2018-01-10T00:33:06.645Z,30.80
2018-01-10T00:33:40.313Z,29.83
2018-01-10T00:34:14.761Z,36.15
2018-01-10T00:34:48.433Z,37.05
2018-01-10T00:35:22.882Z,29.52
2018-01-10T00:35:56.585Z,27.83
2018-01-10T00:36:30.254Z,34.88
2018-01-10T00:37:03.926Z,36.90
2018-01-10T00:37:37.668Z,29.67
2018-01-10T00:38:11.326Z,33.90
2018-01-10T00:38:44.998Z,40.05
2018-01-10T00:39:18.669Z,27.85
2018-01-10T00:39:52.337Z,31.40
2018-01-10T00:40:26.790Z,32.60
2018-01-10T00:41:00.491Z,32.03
2018-01-10T00:41:34.164Z,32.33
2018-01-10T00:42:07.839Z,32.85
2018-01-10T00:42:41.515Z,35.45
2018-01-10T00:43:15.959Z,31.95
2018-01-10T00:43:49.684Z,33.40
2018-01-10T00:44:23.356Z,29.70
2018-01-10T00:44:57.032Z,33.97
2018-01-10T00:45:30.714Z,32.22
2018-01-10T00:46:04.435Z,31.48
2018-01-10T00:46:38.102Z,32.58
2018-01-10T00:47:11.767Z,34.55
2018-01-10T00:47:45.812Z,32.78
2018-01-10T00:48:19.479Z,32.45
2018-01-10T00:48:53.213Z,30.00
2018-01-10T00:49:27.662Z,30.98
2018-01-10T00:50:01.338Z,32.00
2018-01-10T00:50:35.021Z,31.62
2018-01-10T00:51:08.716Z,34.35
2018-01-10T00:51:42.400Z,31.45
2018-01-10T00:52:16.839Z,32.72
2018-01-10T00:52:50.500Z,29.45
2018-01-10T00:53:24.160Z,29.20
2018-01-10T00:53:57.815Z,28.90
2018-01-10T00:54:31.490Z,32.95
2018-01-10T00:55:05.159Z,28.98
2018-01-10T00:55:38.824Z,32.17
2018-01-10T00:56:12.542Z,30.75
2018-01-10T00:56:46.228Z,35.50
2018-01-10T00:57:19.899Z,33.85
2018-01-10T00:57:54.323Z,30.42
2018-01-10T00:58:28.761Z,28.95
2018-01-10T00:59:02.438Z,28.27
2018-01-10T00:59:36.130Z,32.40
2018-01-10T01:00:09.820Z,34.17
2018-01-10T01:00:43.174Z,31.77
2018-01-10T01:01:17.302Z,34.15
2018-01-10T01:01:50.996Z,29.80
2018-01-10T01:02:24.666Z,35.88
2018-01-10T01:02:58.342Z,32.17
2018-01-10T01:03:32.818Z,30.08
2018-01-10T01:04:06.484Z,30.48
2018-01-10T01:04:40.158Z,39.17
2018-01-10T01:05:13.830Z,32.50
2018-01-10T01:05:47.490Z,29.60
2018-01-10T01:06:21.202Z,33.60
2018-01-10T01:06:55.650Z,33.60
2018-01-10T01:07:29.322Z,34.97
2018-01-10T01:08:03.014Z,32.70
2018-01-10T01:08:36.693Z,32.95
2018-01-10T01:09:10.378Z,35.42
2018-01-10T01:09:44.082Z,32.17
2018-01-10T01:10:17.759Z,33.83
2018-01-10T01:10:51.441Z,30.48
2018-01-10T01:11:25.922Z,30.92
2018-01-10T01:11:59.604Z,32.20
2018-01-10T01:12:33.326Z,33.60
2018-01-10T01:13:07.765Z,32.10
2018-01-10T01:13:41.526Z,30.33
2018-01-10T01:14:15.211Z,32.15
2018-01-10T01:14:49.673Z,33.72
2018-01-10T01:15:23.022Z,36.80
2018-01-10T01:15:56.710Z,32.72
2018-01-10T01:16:30.420Z,30.20
2018-01-10T01:17:03.766Z,35.60
2018-01-10T01:17:38.212Z,29.67
2018-01-10T01:18:11.878Z,30.90
2018-01-10T01:18:45.555Z,34.90
2018-01-10T01:19:19.250Z,32.30
2018-01-10T01:19:52.930Z,31.50
2018-01-10T01:20:27.375Z,33.28
2018-01-10T01:21:01.055Z,34.97
2018-01-10T01:21:34.807Z,34.13
2018-01-10T01:22:08.614Z,33.13
2018-01-10T01:22:42.292Z,33.28
2018-01-10T01:23:16.736Z,30.45
2018-01-10T01:23:50.414Z,30.90
2018-01-10T01:24:24.082Z,30.42
2018-01-10T01:24:58.511Z,29.90
2018-01-10T01:25:32.189Z,37.83
2018-01-10T01:26:05.875Z,31.50
2018-01-10T01:26:40.349Z,34.95
2018-01-10T01:27:14.010Z,30.05
2018-01-10T01:27:47.691Z,31.42
2018-01-10T01:28:21.366Z,31.23
2018-01-10T01:28:55.034Z,29.65
2018-01-10T01:29:29.484Z,34.65
2018-01-10T01:30:03.155Z,33.00
2018-01-10T01:30:36.836Z,31.00
2018-01-10T01:31:11.271Z,30.27
2018-01-10T01:31:44.987Z,33.10
2018-01-10T01:32:18.665Z,38.10
2018-01-10T01:32:52.338Z,27.83
2018-01-10T01:33:26.006Z,32.70
2018-01-10T01:33:59.702Z,35.60
2018-01-10T01:34:33.365Z,34.22
2018-01-10T01:35:07.793Z,30.25
2018-01-10T01:35:41.482Z,30.00
2018-01-10T01:36:15.174Z,32.85
2018-01-10T01:36:48.882Z,30.62
2018-01-10T01:37:22.549Z,29.63
2018-01-10T01:37:56.246Z,30.45
2018-01-10T01:38:29.945Z,33.03
2018-01-10T01:39:03.106Z,35.28
2018-01-10T01:39:36.980Z,34.13
2018-01-10T01:40:11.425Z,38.40
2018-01-10T01:40:45.099Z,32.33
2018-01-10T01:41:18.790Z,28.98
2018-01-10T01:41:52.506Z,32.03
2018-01-10T01:42:26.258Z,32.22
2018-01-10T01:43:00.701Z,31.65
2018-01-10T01:43:34.365Z,26.37
2018-01-10T01:44:08.052Z,33.38
2018-01-10T01:44:41.726Z,32.55
2018-01-10T01:45:16.189Z,31.85
2018-01-10T01:45:49.879Z,35.47
2018-01-10T01:46:23.567Z,31.80
2018-01-10T01:46:57.262Z,31.27
2018-01-10T01:47:31.421Z,34.17
2018-01-10T01:48:05.113Z,31.15
2018-01-10T01:48:38.787Z,31.12
2018-01-10T01:49:13.233Z,29.42
2018-01-10T01:49:46.898Z,34.88
2018-01-10T01:50:20.568Z,30.33
2018-01-10T01:50:55.024Z,37.63
2018-01-10T01:51:28.693Z,30.65
2018-01-10T01:52:02.391Z,30.40
2018-01-10T01:52:36.061Z,33.03
2018-01-10T01:53:10.006Z,32.00
2018-01-10T01:53:43.705Z,30.60
2018-01-10T01:54:17.378Z,33.88
2018-01-10T01:54:51.044Z,29.98
2018-01-10T01:55:24.721Z,32.33
2018-01-10T01:55:58.395Z,31.27
2018-01-10T01:56:32.833Z,31.90
2018-01-10T01:57:06.551Z,36.10
2018-01-10T01:57:40.231Z,32.13
2018-01-10T01:58:13.913Z,41.47
2018-01-10T01:58:47.623Z,36.50
2018-01-10T01:59:21.292Z,33.55
2018-01-10T01:59:54.767Z,31.30
2018-01-10T02:00:28.542Z,38.58
2018-01-10T02:01:02.211Z,37.95
2018-01-10T02:01:36.661Z,32.60
2018-01-10T02:02:10.031Z,30.02
2018-01-10T02:02:43.710Z,35.25
2018-01-10T02:03:17.397Z,34.95
2018-01-10T02:03:51.070Z,36.92
2018-01-10T02:04:25.579Z,31.50
2018-01-10T02:04:59.443Z,31.08
2018-01-10T02:05:33.122Z,31.73
2018-01-10T02:06:07.222Z,32.20
2018-01-10T02:06:40.916Z,36.75
2018-01-10T02:07:14.623Z,33.92
2018-01-10T02:07:48.289Z,33.38
2018-01-10T02:08:21.949Z,35.25
2018-01-10T02:08:55.630Z,34.40
2018-01-10T02:09:29.311Z,31.45
2018-01-10T02:10:03.746Z,31.12
2018-01-10T02:10:37.417Z,31.92
2018-01-10T02:11:11.090Z,40.83
2018-01-10T02:11:45.556Z,37.33
2018-01-10T02:12:19.699Z,34.72
2018-01-10T02:12:53.401Z,34.95
2018-01-10T02:13:27.072Z,37.63
2018-01-10T02:14:01.508Z,34.80
2018-01-10T02:14:35.185Z,34.33
2018-01-10T02:15:08.861Z,33.38
2018-01-10T02:15:43.386Z,31.60
2018-01-10T02:16:17.050Z,30.70
2018-01-10T02:16:51.492Z,37.80
2018-01-10T02:17:25.182Z,32.97
2018-01-10T02:17:58.851Z,34.50
2018-01-10T02:18:33.290Z,37.38
2018-01-10T02:19:06.958Z,33.08
2018-01-10T02:19:39.965Z,34.63
2018-01-10T02:20:12.982Z,37.53
2018-01-10T02:20:46.327Z,35.20
2018-01-10T02:21:19.990Z,35.05
2018-01-10T02:21:53.648Z,32.38
2018-01-10T02:22:28.114Z,36.00
2018-01-10T02:23:01.780Z,32.65
2018-01-10T02:23:35.453Z,34.88
2018-01-10T02:24:09.117Z,34.25
2018-01-10T02:24:42.792Z,38.13
2018-01-10T02:25:16.459Z,32.00
2018-01-10T02:25:50.151Z,39.13
2018-01-10T02:26:23.876Z,36.30
2018-01-10T02:26:57.695Z,37.30
2018-01-10T02:27:31.394Z,34.78
2018-01-10T02:28:05.086Z,36.42
2018-01-10T02:28:38.762Z,37.47
2018-01-10T02:29:12.427Z,36.25
2018-01-10T02:29:46.090Z,34.20
2018-01-10T02:30:19.771Z,40.65
2018-01-10T02:30:53.437Z,34.28
2018-01-10T02:31:26.785Z,39.33
2018-01-10T02:32:01.216Z,38.45
2018-01-10T02:32:34.911Z,36.97
2018-01-10T02:33:08.617Z,38.38
2018-01-10T02:33:42.323Z,35.45
2018-01-10T02:34:15.992Z,39.20
2018-01-10T02:34:49.667Z,36.15
2018-01-10T02:35:23.366Z,36.45
2018-01-10T02:35:57.034Z,36.17
2018-01-10T02:36:30.707Z,38.40
2018-01-10T02:37:04.386Z,45.60
2018-01-10T02:37:39.609Z,41.80
2018-01-10T02:38:13.278Z,37.25
2018-01-10T02:38:46.956Z,33.70
2018-01-10T02:39:20.633Z,36.75
2018-01-10T02:39:54.312Z,39.67
2018-01-10T02:40:27.992Z,37.13
2018-01-10T02:41:01.654Z,37.25
2018-01-10T02:41:36.834Z,40.25
2018-01-10T02:43:10.134Z,35.10
2018-01-10T02:43:43.793Z,33.95
2018-01-10T02:44:17.470Z,36.30
2018-01-10T02:44:51.136Z,34.22
2018-01-10T02:45:24.811Z,37.10
2018-01-10T02:45:58.474Z,39.58
2018-01-10T02:46:32.138Z,39.38
2018-01-10T02:47:05.803Z,37.13
2018-01-10T02:47:40.234Z,35.58
2018-01-10T02:48:13.945Z,39.55
2018-01-10T02:48:47.613Z,38.65
2018-01-10T02:49:22.052Z,42.83
2018-01-10T02:49:55.710Z,38.05
2018-01-10T02:50:29.377Z,42.60
2018-01-10T02:51:03.806Z,42.15
2018-01-10T02:51:37.478Z,37.60
2018-01-10T02:52:11.906Z,37.58
2018-01-10T02:52:45.570Z,39.28
2018-01-10T02:53:20.038Z,41.42
2018-01-10T02:53:53.727Z,36.40
2018-01-10T02:54:27.418Z,33.33
2018-01-10T02:55:01.090Z,42.30
2018-01-10T02:55:34.423Z,38.25
2018-01-10T02:56:08.859Z,40.60
2018-01-10T02:56:42.530Z,39.63
2018-01-10T02:57:16.977Z,39.88
2018-01-10T02:57:50.703Z,34.88
2018-01-10T02:58:24.409Z,41.15
2018-01-10T02:58:58.288Z,36.40
2018-01-10T02:59:31.958Z,38.30
2018-01-10T03:00:05.095Z,42.30
2018-01-10T03:00:38.450Z,37.10
2018-01-10T03:01:12.106Z,43.53
2018-01-10T03:01:45.790Z,45.22
2018-01-10T03:02:19.482Z,37.60
2018-01-10T03:02:53.167Z,41.80
2018-01-10T03:03:26.857Z,40.22
2018-01-10T03:04:00.533Z,34.70
2018-01-10T03:04:34.194Z,36.17
2018-01-10T03:05:09.478Z,36.30
2018-01-10T03:05:43.190Z,42.28
2018-01-10T03:06:16.871Z,36.38
2018-01-10T03:06:50.560Z,41.30
2018-01-10T03:07:24.223Z,43.08
2018-01-10T03:07:57.882Z,41.92
2018-01-10T03:08:31.584Z,38.58
2018-01-10T03:09:04.602Z,40.08
2018-01-10T03:09:38.266Z,39.05
2018-01-10T03:10:11.607Z,42.00
2018-01-10T03:10:46.026Z,41.80
2018-01-10T03:11:19.691Z,42.10
2018-01-10T03:11:54.122Z,45.50
2018-01-10T03:12:27.811Z,39.40
2018-01-10T03:13:01.490Z,38.35
2018-01-10T03:13:35.202Z,38.05
2018-01-10T03:14:08.892Z,43.58
2018-01-10T03:14:42.570Z,39.30
2018-01-10T03:15:16.250Z,40.17
2018-01-10T03:15:50.857Z,40.15
2018-01-10T03:16:25.345Z,40.58
2018-01-10T03:16:59.162Z,41.83
2018-01-10T03:17:33.599Z,42.17
2018-01-10T03:18:07.281Z,40.40
2018-01-10T03:18:40.986Z,37.50
2018-01-10T03:19:14.660Z,39.00
2018-01-10T03:19:48.042Z,43.75
2018-01-10T03:20:21.722Z,37.60
2018-01-10T03:20:55.401Z,35.97
2018-01-10T03:21:29.834Z,38.75
2018-01-10T03:22:03.522Z,40.42
2018-01-10T03:22:37.219Z,43.22
2018-01-10T03:23:10.884Z,40.03
2018-01-10T03:23:45.351Z,41.55
2018-01-10T03:24:19.022Z,41.42
2018-01-10T03:24:52.699Z,37.88
2018-01-10T03:25:26.362Z,36.95
2018-01-10T03:26:00.033Z,45.33
2018-01-10T03:26:34.471Z,40.50
2018-01-10T03:27:08.138Z,38.50
2018-01-10T03:27:42.581Z,36.65
2018-01-10T03:28:16.257Z,36.80
2018-01-10T03:28:49.966Z,40.53
2018-01-10T03:29:23.627Z,41.80
2018-01-10T03:29:57.306Z,41.75
2018-01-10T03:30:31.747Z,41.30
2018-01-10T03:31:05.103Z,38.20
2018-01-10T03:31:39.537Z,41.37
2018-01-10T03:32:13.194Z,42.97
2018-01-10T03:32:46.862Z,37.15
2018-01-10T03:33:21.307Z,39.90
2018-01-10T03:33:55.013Z,37.25
2018-01-10T03:34:28.694Z,41.15
2018-01-10T03:35:02.366Z,42.13
2018-01-10T03:35:36.036Z,43.15
2018-01-10T03:36:10.473Z,38.00
2018-01-10T03:36:44.158Z,41.60
2018-01-10T03:37:17.839Z,37.17
2018-01-10T03:37:51.526Z,42.47
2018-01-10T03:38:25.204Z,39.35
2018-01-10T03:38:59.686Z,40.50
2018-01-10T03:39:33.352Z,40.10
2018-01-10T03:40:07.018Z,40.58
2018-01-10T03:40:40.709Z,41.63
2018-01-10T03:41:14.053Z,44.88
2018-01-10T03:41:47.730Z,42.60
2018-01-10T03:42:22.918Z,42.13
2018-01-10T03:42:56.592Z,42.58
2018-01-10T03:43:30.266Z,43.22
2018-01-10T03:44:04.741Z,40.20
2018-01-10T03:44:38.430Z,38.67
2018-01-10T03:45:12.114Z,43.87
2018-01-10T03:45:45.778Z,40.28
2018-01-10T03:46:19.462Z,40.72
2018-01-10T03:46:53.139Z,45.10
2018-01-10T03:47:26.813Z,43.35
2018-01-10T03:48:01.251Z,42.35
2018-01-10T03:48:34.926Z,44.83
2018-01-10T03:49:08.618Z,39.85
2018-01-10T03:49:42.303Z,46.45
2018-01-10T03:50:15.973Z,43.47
2018-01-10T03:50:50.415Z,39.72
2018-01-10T03:51:24.091Z,42.30
2018-01-10T03:51:57.769Z,46.72
2018-01-10T03:52:31.429Z,43.28
2018-01-10T03:53:05.112Z,39.30
2018-01-10T03:53:38.784Z,42.67
2018-01-10T03:54:12.504Z,39.10
2018-01-10T03:54:46.945Z,40.63
2018-01-10T03:55:20.619Z,46.67
2018-01-10T03:55:55.042Z,46.03
2018-01-10T03:56:28.713Z,39.80
2018-01-10T03:57:03.153Z,44.63
2018-01-10T03:57:36.828Z,37.67
2018-01-10T03:58:10.517Z,39.45
2018-01-10T03:58:44.194Z,43.25
2018-01-10T03:59:17.898Z,37.67
2018-01-10T03:59:51.562Z,41.08
2018-01-10T04:00:26.011Z,42.78
2018-01-10T04:00:59.683Z,41.05
2018-01-10T04:01:33.344Z,44.08
2018-01-10T04:02:07.786Z,37.38
2018-01-10T04:02:41.468Z,39.45
2018-01-10T04:03:15.294Z,42.60
2018-01-10T04:03:48.967Z,43.65
2018-01-10T04:04:22.661Z,39.58
2018-01-10T04:04:56.326Z,43.22
2018-01-10T04:05:29.988Z,40.47
2018-01-10T04:06:04.428Z,38.40
2018-01-10T04:06:38.089Z,41.75
2018-01-10T04:07:12.538Z,38.55
2018-01-10T04:07:46.218Z,40.00
2018-01-10T04:08:19.878Z,44.40
2018-01-10T04:08:53.543Z,41.30
2018-01-10T04:09:28.770Z,37.78
2018-01-10T04:10:02.460Z,36.10
2018-01-10T04:10:36.130Z,42.80
2018-01-10T04:11:09.799Z,42.05
2018-01-10T04:11:43.489Z,43.85
2018-01-10T04:12:17.183Z,48.42
2018-01-10T04:12:50.849Z,47.20
2018-01-10T04:13:24.522Z,42.70
2018-01-10T04:13:58.968Z,41.70
2018-01-10T04:14:32.680Z,40.75
2018-01-10T04:15:06.355Z,44.45
2018-01-10T04:15:40.034Z,42.08
2018-01-10T04:16:13.726Z,47.38
2018-01-10T04:16:47.419Z,38.55
2018-01-10T04:17:21.099Z,42.92
2018-01-10T04:17:54.752Z,39.60
2018-01-10T04:18:28.419Z,43.03
2018-01-10T04:19:02.097Z,46.15
2018-01-10T04:19:35.800Z,43.40
2018-01-10T04:20:09.478Z,45.55
2018-01-10T04:20:43.160Z,44.53
2018-01-10T04:21:16.815Z,40.33
2018-01-10T04:21:50.500Z,46.13
2018-01-10T04:22:24.946Z,43.75
2018-01-10T04:22:58.621Z,45.15
2018-01-10T04:23:32.293Z,41.58
2018-01-10T04:24:05.952Z,41.20
2018-01-10T04:24:39.648Z,35.53
2018-01-10T04:25:14.099Z,47.75
2018-01-10T04:25:47.777Z,41.33
2018-01-10T04:26:21.451Z,40.67
2018-01-10T04:26:55.120Z,41.30
2018-01-10T04:27:28.778Z,39.13
2018-01-10T04:28:02.454Z,44.45
2018-01-10T04:28:36.114Z,47.78
2018-01-10T04:29:09.779Z,44.38
2018-01-10T04:29:43.472Z,46.28
2018-01-10T04:30:17.903Z,40.97
2018-01-10T04:30:51.590Z,41.05
2018-01-10T04:31:25.250Z,45.22
2018-01-10T04:31:58.910Z,43.55
2018-01-10T04:32:32.591Z,41.35
2018-01-10T04:33:06.255Z,46.40
2018-01-10T04:33:39.604Z,41.75
2018-01-10T04:34:14.070Z,39.42
2018-01-10T04:34:47.782Z,40.75
2018-01-10T04:35:21.445Z,43.13
2018-01-10T04:35:55.108Z,40.95
2018-01-10T04:36:28.773Z,40.05
2018-01-10T04:37:03.240Z,43.87
2018-01-10T04:37:36.921Z,45.15
2018-01-10T04:38:10.591Z,47.78
2018-01-10T04:38:44.268Z,40.88
2018-01-10T04:39:17.959Z,42.85
2018-01-10T04:39:51.658Z,44.05
2018-01-10T04:40:25.351Z,47.10
2018-01-10T04:40:59.029Z,44.75
2018-01-10T04:41:32.698Z,48.60
2018-01-10T04:42:07.146Z,38.65
2018-01-10T04:42:40.827Z,43.58
2018-01-10T04:43:15.447Z,46.70
2018-01-10T04:43:49.114Z,44.72
2018-01-10T04:44:22.810Z,43.15
2018-01-10T04:44:56.501Z,47.00
2018-01-10T04:45:30.267Z,42.67
2018-01-10T04:46:04.722Z,43.55
2018-01-10T04:46:38.393Z,39.53
2018-01-10T04:47:11.762Z,39.33
2018-01-10T04:47:46.208Z,41.05
2018-01-10T04:48:19.887Z,39.22
2018-01-10T04:48:53.577Z,40.42
2018-01-10T04:49:27.242Z,45.35
2018-01-10T04:50:01.722Z,42.45
2018-01-10T04:50:35.376Z,42.55
2018-01-10T04:51:09.071Z,40.85
2018-01-10T04:51:42.764Z,42.35
2018-01-10T04:52:16.453Z,40.78
2018-01-10T04:52:50.159Z,41.33
2018-01-10T04:53:23.855Z,42.33
2018-01-10T04:53:57.523Z,44.65
2018-01-10T04:54:31.190Z,46.30
2018-01-10T04:55:04.922Z,44.10
2018-01-10T04:55:38.592Z,41.83
2018-01-10T04:56:12.267Z,43.13
2018-01-10T04:56:45.952Z,44.42
2018-01-10T04:57:19.904Z,45.10
2018-01-10T04:57:54.355Z,40.15
2018-01-10T04:58:28.059Z,43.58
2018-01-10T04:59:01.735Z,42.53
2018-01-10T04:59:35.404Z,40.65
2018-01-10T05:00:09.115Z,41.53
2018-01-10T05:00:42.815Z,47.15
2018-01-10T05:01:16.481Z,44.67
2018-01-10T05:01:50.135Z,44.45
2018-01-10T05:02:24.574Z,43.63
2018-01-10T05:02:58.247Z,43.38
2018-01-10T05:03:32.697Z,44.38
2018-01-10T05:04:06.538Z,39.47
2018-01-10T05:04:40.219Z,43.53
2018-01-10T05:05:13.926Z,40.67
2018-01-10T05:05:48.356Z,41.95
2018-01-10T05:06:22.014Z,44.45
2018-01-10T05:06:56.449Z,48.50
2018-01-10T05:07:30.118Z,39.38
2018-01-10T05:08:04.560Z,49.13
2018-01-10T05:08:38.246Z,46.50
2018-01-10T05:09:11.929Z,50.05
2018-01-10T05:09:45.603Z,43.87
2018-01-10T05:10:20.075Z,43.20
2018-01-10T05:10:53.738Z,42.70
2018-01-10T05:11:27.469Z,48.80
2018-01-10T05:12:01.298Z,40.35
2018-01-10T05:12:34.967Z,45.12
2018-01-10T05:13:09.396Z,42.97
2018-01-10T05:13:43.080Z,40.58
2018-01-10T05:14:16.746Z,43.42
2018-01-10T05:14:50.423Z,44.13
2018-01-10T05:15:24.138Z,44.38
2018-01-10T05:15:58.558Z,46.22
2018-01-10T05:16:32.245Z,44.22
2018-01-10T05:17:05.907Z,41.22
2018-01-10T05:17:39.579Z,40.90
2018-01-10T05:18:13.242Z,42.13
2018-01-10T05:18:46.903Z,43.05
2018-01-10T05:19:20.557Z,46.60
2018-01-10T05:19:54.232Z,49.22
2018-01-10T05:20:27.930Z,42.62
2018-01-10T05:21:01.590Z,41.50
2018-01-10T05:21:35.249Z,40.58
2018-01-10T05:22:08.955Z,45.90
2018-01-10T05:22:42.621Z,46.90
2018-01-10T05:23:17.061Z,44.90
2018-01-10T05:23:50.730Z,48.35
2018-01-10T05:24:24.406Z,47.25
2018-01-10T05:24:58.084Z,50.70
2018-01-10T05:25:32.539Z,45.47
2018-01-10T05:26:06.196Z,42.92
2018-01-10T05:26:39.869Z,41.65
2018-01-10T05:27:14.301Z,50.22
2018-01-10T05:27:47.984Z,48.40
2018-01-10T05:28:21.644Z,41.30
2018-01-10T05:28:56.817Z,47.62
2018-01-10T05:29:30.483Z,48.30
2018-01-10T05:30:04.915Z,44.75
2018-01-10T05:30:38.610Z,43.00
2018-01-10T05:31:12.296Z,51.75
2018-01-10T05:31:45.959Z,45.85
2018-01-10T05:32:20.395Z,41.63
2018-01-10T05:32:54.068Z,45.38
2018-01-10T05:33:27.754Z,50.10
2018-01-10T05:34:01.411Z,42.40
2018-01-10T05:34:35.121Z,47.85
2018-01-10T05:35:09.562Z,45.67
2018-01-10T05:35:43.252Z,41.45
2018-01-10T05:36:16.918Z,40.58
2018-01-10T05:36:54.440Z,45.30
2018-01-10T05:37:28.109Z,41.88
2018-01-10T05:38:01.770Z,42.72
2018-01-10T05:38:36.206Z,42.17
2018-01-10T05:39:09.870Z,45.05
2018-01-10T05:39:44.300Z,45.72
2018-01-10T05:40:17.980Z,45.00
2018-01-10T05:40:51.713Z,44.75
2018-01-10T05:41:25.375Z,41.85
2018-01-10T05:41:59.050Z,43.47
2018-01-10T05:42:32.723Z,41.40
2018-01-10T05:43:07.174Z,47.58
2018-01-10T05:43:40.851Z,42.33
2018-01-10T05:44:14.526Z,48.28
2018-01-10T05:44:48.210Z,44.40
2018-01-10T05:45:21.886Z,47.40
2018-01-10T05:45:56.357Z,45.25
2018-01-10T05:46:30.024Z,48.60
2018-01-10T05:47:03.697Z,48.87
2018-01-10T05:47:37.364Z,45.12
2018-01-10T05:48:11.805Z,45.20
2018-01-10T05:48:45.458Z,44.80
2018-01-10T05:49:19.928Z,46.00
2018-01-10T05:49:53.585Z,45.83
2018-01-10T05:50:27.278Z,44.15
2018-01-10T05:51:00.997Z,44.63
2018-01-10T05:51:34.663Z,43.20
2018-01-10T05:52:08.334Z,50.20
2018-01-10T05:52:42.021Z,42.78
2018-01-10T05:53:16.655Z,43.17
2018-01-10T05:53:50.334Z,45.78
2018-01-10T05:54:24.004Z,46.65
2018-01-10T05:54:57.370Z,43.33
2018-01-10T05:55:31.033Z,44.95
2018-01-10T05:56:04.742Z,44.50
2018-01-10T05:56:39.190Z,41.42
2018-01-10T05:57:12.868Z,49.40
2018-01-10T05:57:46.533Z,45.40
2018-01-10T05:58:20.978Z,48.45
2018-01-10T05:58:54.643Z,43.22
2018-01-10T05:59:29.112Z,46.80
2018-01-10T06:00:02.823Z,53.22
2018-01-10T06:00:36.539Z,46.85
2018-01-10T06:01:10.287Z,46.95
2018-01-10T06:01:43.945Z,47.97
2018-01-10T06:02:17.633Z,49.45
2018-01-10T06:02:51.314Z,44.35
2018-01-10T06:03:24.994Z,45.20
2018-01-10T06:03:58.672Z,50.35
2018-01-10T06:04:33.119Z,43.42
2018-01-10T06:05:06.832Z,46.10
2018-01-10T06:05:40.508Z,41.45
2018-01-10T06:06:14.026Z,42.70
2018-01-10T06:06:48.463Z,46.58
2018-01-10T06:07:22.138Z,45.60
2018-01-10T06:07:56.580Z,46.15
2018-01-10T06:08:30.250Z,47.20
2018-01-10T06:09:03.407Z,41.37
2018-01-10T06:09:37.839Z,42.15
2018-01-10T06:10:11.515Z,46.67
2018-01-10T06:10:45.946Z,44.80
2018-01-10T06:11:19.651Z,46.33
2018-01-10T06:11:53.330Z,47.92
2018-01-10T06:12:26.985Z,41.37
2018-01-10T06:13:01.488Z,44.88
2018-01-10T06:13:35.917Z,46.40
2018-01-10T06:14:09.262Z,45.20
2018-01-10T06:14:42.922Z,44.53
2018-01-10T06:15:16.602Z,43.75
2018-01-10T06:15:50.092Z,45.63
2018-01-10T06:16:23.790Z,46.60
2018-01-10T06:16:57.471Z,46.05
2018-01-10T06:17:31.159Z,49.08
2018-01-10T06:18:04.835Z,51.97
2018-01-10T06:18:38.514Z,43.97
2018-01-10T06:19:12.190Z,45.88
2018-01-10T06:19:45.863Z,49.10
2018-01-10T06:20:19.541Z,45.70
2018-01-10T06:20:53.205Z,47.42
2018-01-10T06:21:26.920Z,44.13
2018-01-10T06:22:00.596Z,46.53
2018-01-10T06:22:34.300Z,46.37
2018-01-10T06:23:07.975Z,47.85
2018-01-10T06:23:41.649Z,45.08
2018-01-10T06:24:15.334Z,45.92
2018-01-10T06:24:49.010Z,44.72
2018-01-10T06:25:22.698Z,41.28
2018-01-10T06:25:56.376Z,45.45
2018-01-10T06:26:30.078Z,44.60
2018-01-10T06:27:03.764Z,43.80
2018-01-10T06:27:37.437Z,45.67
2018-01-10T06:28:14.442Z,44.92
2018-01-10T06:28:51.597Z,48.67
2018-01-10T06:29:25.375Z,42.38
2018-01-10T06:29:59.051Z,43.72
2018-01-10T06:30:32.729Z,51.35
2018-01-10T06:31:06.455Z,44.88
2018-01-10T06:31:40.301Z,46.70
2018-01-10T06:32:13.988Z,47.83
2018-01-10T06:32:47.645Z,45.22
2018-01-10T06:33:21.339Z,44.33
2018-01-10T06:33:55.001Z,47.20
2018-01-10T06:34:28.776Z,46.45
2018-01-10T06:35:03.270Z,50.78
2018-01-10T06:35:37.717Z,44.83
2018-01-10T06:36:11.396Z,46.85
2018-01-10T06:36:45.110Z,47.35
2018-01-10T06:37:18.774Z,44.65
2018-01-10T06:37:52.427Z,45.17
2018-01-10T06:38:26.082Z,42.33
2018-01-10T06:38:59.762Z,51.33
2018-01-10T06:39:33.426Z,46.15
2018-01-10T06:40:07.090Z,48.22
2018-01-10T06:40:41.522Z,50.58
2018-01-10T06:41:15.962Z,45.05
2018-01-10T06:41:49.696Z,44.28
2018-01-10T06:42:24.160Z,46.72
2018-01-10T06:42:57.825Z,48.85
2018-01-10T06:43:31.162Z,53.20
2018-01-10T06:44:04.828Z,48.05
2018-01-10T06:44:38.511Z,51.35
2018-01-10T06:45:12.180Z,42.17
2018-01-10T06:45:45.890Z,49.00
2018-01-10T06:46:19.554Z,44.55
2018-01-10T06:46:53.266Z,47.45
2018-01-10T06:47:26.954Z,46.30
2018-01-10T06:48:00.644Z,54.83
2018-01-10T06:48:34.309Z,48.63
2018-01-10T06:49:08.101Z,46.50
2018-01-10T06:49:41.769Z,44.83
2018-01-10T06:50:16.205Z,52.22
2018-01-10T06:50:49.894Z,50.97
2018-01-10T06:51:23.583Z,51.25
2018-01-10T06:51:57.293Z,51.45
2018-01-10T06:52:30.962Z,52.13
2018-01-10T06:53:04.631Z,47.65
2018-01-10T06:53:39.074Z,48.40
2018-01-10T06:54:12.751Z,55.67
2018-01-10T06:54:46.431Z,47.62
2018-01-10T06:55:20.534Z,46.22
2018-01-10T06:55:54.196Z,51.10
2018-01-10T06:56:28.629Z,53.45
2018-01-10T06:57:02.326Z,47.38
2018-01-10T06:57:36.010Z,46.22
2018-01-10T06:58:09.684Z,46.28
2018-01-10T06:58:44.127Z,47.17
2018-01-10T06:59:17.818Z,48.28
2018-01-10T06:59:51.490Z,50.83
2018-01-10T07:00:25.216Z,49.80
2018-01-10T07:00:58.902Z,45.90
2018-01-10T07:01:32.583Z,44.63
2018-01-10T07:02:06.278Z,48.25
2018-01-10T07:02:39.956Z,50.17
2018-01-10T07:03:13.625Z,45.38
2018-01-10T07:03:47.306Z,48.63
2018-01-10T07:04:21.759Z,47.45
2018-01-10T07:04:55.431Z,51.85
2018-01-10T07:05:29.106Z,48.22
2018-01-10T07:06:02.798Z,53.08
2018-01-10T07:06:36.470Z,51.95
2018-01-10T07:07:10.925Z,42.53
2018-01-10T07:07:44.604Z,43.78
2018-01-10T07:08:18.258Z,52.92
2018-01-10T07:08:52.705Z,51.70
2018-01-10T07:09:26.367Z,44.28
2018-01-10T07:10:00.032Z,44.65
2018-01-10T07:10:34.534Z,49.85
2018-01-10T07:11:08.358Z,46.63
2018-01-10T07:11:42.026Z,53.00
2018-01-10T07:12:16.491Z,49.20
2018-01-10T07:12:50.169Z,46.58
2018-01-10T07:13:24.034Z,46.63
2018-01-10T07:13:57.697Z,49.70
2018-01-10T07:14:31.369Z,49.15
2018-01-10T07:15:05.035Z,51.37
2018-01-10T07:15:38.726Z,51.78
2018-01-10T07:16:13.310Z,52.47
2018-01-10T07:16:46.985Z,48.85